Terminal Aerodrome Forecast
Issued by NWS

Home | Current Version | Previous Version | Text Only | Print | Product List | Glossary On
Versions: 1 2 3 4 5 6 7 8 9 10 11 12 13 14 15 16
220
FTUS43 KJKL 200539
TAFSME
TAF
KSME 200539Z 2006/2106 VRB03KT P6SM SCT200
     FM201200 VRB06KT P6SM SCT050 BKN120
     FM210300 22005KT P6SM -SHRA VCTS BKN035CB WS020/23035KT
     FM210500 22005KT P6SM -SHRA VCTS OVC025CB=

USA.gov is the U.S. government's official web portal to all federal, state and local government web resources and services.